Time;durP1;ratioP1;P1;durP2;ratioP2;P2;SDS_P1;SDS_P2;PMS_P1;PMS_P2;Temp;Humidity;BMP_temperature;BMP_pressure;BME280_temperature;BME280_humidity;BME280_pressure;Samples;Min_cycle;Max_cycle;Signal;HPM_P1;HPM_P2
2021/10/04 00:02:21;;;;;;;0.10;0.10;;;;;;;15.07;63.80;101121.75;5002562;28;20382;-86
2021/10/04 00:04:47;;;;;;;0.20;0.20;;;;;;;15.07;63.91;101114.59;5002833;28;20450;-88
2021/10/04 00:07:14;;;;;;;0.10;0.10;;;;;;;14.99;63.86;101124.66;4997068;28;20030;-86
2021/10/04 00:09:41;;;;;;;0.10;0.10;;;;;;;15.00;63.79;101124.63;5003570;28;20030;-86
2021/10/04 00:12:08;;;;;;;0.10;0.10;;;;;;;14.92;64.21;101125.81;5000994;28;20034;-86
2021/10/04 00:14:36;;;;;;;0.20;0.20;;;;;;;15.04;63.67;101125.38;4998591;28;20037;-86
2021/10/04 00:17:04;;;;;;;0.05;0.05;;;;;;;15.12;63.49;101128.66;5006897;28;20152;-86
2021/10/04 00:19:31;;;;;;;0.10;0.10;;;;;;;15.12;63.75;101134.00;5002522;28;20026;-86
2021/10/04 00:21:58;;;;;;;0.00;0.00;;;;;;;15.09;63.74;101147.47;5001104;28;20035;-86
2021/10/04 00:24:25;;;;;;;0.10;0.10;;;;;;;15.11;63.79;101142.06;5002025;28;20045;-88
2021/10/04 00:26:52;;;;;;;0.10;0.10;;;;;;;15.04;63.81;101149.38;5004174;28;20042;-87
2021/10/04 00:29:19;;;;;;;0.10;0.10;;;;;;;15.06;63.81;101144.88;5003529;28;20054;-88
2021/10/04 00:31:47;;;;;;;0.10;0.10;;;;;;;14.99;64.12;101148.69;5002602;28;20031;-87
2021/10/04 00:34:14;;;;;;;0.10;0.10;;;;;;;15.03;64.01;101158.34;5003258;28;20122;-87
2021/10/04 00:36:41;;;;;;;0.10;0.10;;;;;;;15.01;63.93;101165.53;4999257;28;20096;-87
2021/10/04 00:39:08;;;;;;;0.00;0.00;;;;;;;15.03;64.14;101161.88;5002117;28;20084;-87
2021/10/04 00:41:35;;;;;;;0.10;0.10;;;;;;;14.96;64.22;101159.47;5002359;28;20032;-89
2021/10/04 00:44:02;;;;;;;0.10;0.10;;;;;;;15.01;64.26;101163.72;5004479;28;20114;-86
2021/10/04 00:46:29;;;;;;;0.10;0.10;;;;;;;14.93;64.56;101162.22;5001609;28;20096;-87
2021/10/04 00:48:56;;;;;;;0.10;0.10;;;;;;;15.09;64.03;101159.91;5002375;28;20474;-89
2021/10/04 00:51:30;;;;;;;0.10;0.10;;;;;;;15.11;63.83;101152.75;5003713;28;20034;-87
2021/10/04 00:53:58;;;;;;;0.10;0.10;;;;;;;14.98;63.95;101165.63;4999292;28;20030;-87
2021/10/04 00:56:25;;;;;;;0.10;0.10;;;;;;;15.03;64.02;101172.53;5003166;28;20034;-86
2021/10/04 00:58:55;;;;;;;0.10;0.10;;;;;;;15.08;63.92;101175.06;5002754;28;20034;-86
2021/10/04 01:01:28;;;;;;;0.75;0.75;;;;;;;14.92;64.15;101179.19;4998751;28;20052;-87
2021/10/04 01:04:05;;;;;;;0.20;0.20;;;;;;;14.98;64.31;101184.31;4997293;28;20042;-86
2021/10/04 01:06:39;;;;;;;0.10;0.10;;;;;;;15.07;64.14;101192.00;5003411;28;20026;-86
2021/10/04 01:09:08;;;;;;;0.10;0.10;;;;;;;15.04;64.05;101189.41;5002658;28;20030;-86
2021/10/04 01:11:35;;;;;;;0.10;0.10;;;;;;;14.95;64.23;101184.41;4999918;28;20033;-86
2021/10/04 01:14:01;;;;;;;0.10;0.10;;;;;;;15.02;64.00;101192.16;5001078;28;20044;-87
2021/10/04 01:16:28;;;;;;;0.10;0.10;;;;;;;15.15;63.82;101194.41;4996872;28;20037;-88
2021/10/04 01:18:54;;;;;;;0.10;0.10;;;;;;;15.03;63.93;101185.03;4998000;28;20117;-88
2021/10/04 01:21:21;;;;;;;0.10;0.10;;;;;;;15.10;63.77;101197.22;5002596;28;20027;-87
2021/10/04 01:23:47;;;;;;;0.10;0.10;;;;;;;15.00;64.30;101199.34;5000727;28;20034;-86
2021/10/04 01:26:15;;;;;;;0.10;0.10;;;;;;;15.04;64.20;101194.75;5001806;28;20026;-87
2021/10/04 01:28:41;;;;;;;0.10;0.10;;;;;;;14.98;64.24;101195.84;5000101;28;20022;-87
2021/10/04 01:31:08;;;;;;;0.10;0.10;;;;;;;15.01;63.88;101210.88;4997666;28;20385;-87
2021/10/04 01:33:34;;;;;;;0.10;0.10;;;;;;;15.08;64.05;101209.75;5000249;28;20042;-88
2021/10/04 01:36:01;;;;;;;0.10;0.10;;;;;;;15.09;64.08;101222.19;5001740;28;20024;-87
2021/10/04 01:38:27;;;;;;;0.17;0.17;;;;;;;15.01;64.09;101221.56;5001430;28;20022;-87
2021/10/04 01:40:54;;;;;;;0.20;0.20;;;;;;;15.05;64.06;101231.19;5003361;28;20041;-87
2021/10/04 01:43:20;;;;;;;0.10;0.10;;;;;;;15.00;64.20;101233.16;5002733;28;20062;-87
2021/10/04 01:45:47;;;;;;;0.10;0.10;;;;;;;14.96;63.77;101229.69;5004347;28;20430;-86
2021/10/04 01:48:14;;;;;;;0.00;0.00;;;;;;;14.93;64.18;101218.25;5001924;28;20042;-89
2021/10/04 01:50:40;;;;;;;0.10;0.10;;;;;;;14.99;64.07;101218.06;5000649;28;21324;-87
2021/10/04 01:53:08;;;;;;;0.10;0.10;;;;;;;15.04;64.10;101216.09;5002182;28;20023;-87
2021/10/04 01:55:35;;;;;;;0.10;0.10;;;;;;;14.97;64.17;101206.56;5003640;28;20149;-87
2021/10/04 01:58:02;;;;;;;0.20;0.20;;;;;;;15.01;63.95;101206.41;5001584;28;20037;-88
2021/10/04 02:00:33;;;;;;;0.10;0.10;;;;;;;14.98;64.22;101216.34;5000465;28;20238;-87
2021/10/04 02:02:59;;;;;;;0.10;0.10;;;;;;;14.93;64.28;101213.81;5000794;28;20030;-87
2021/10/04 02:05:29;;;;;;;0.10;0.10;;;;;;;14.99;64.10;101210.94;5003977;28;20167;-87
2021/10/04 02:07:56;;;;;;;0.17;0.17;;;;;;;14.98;64.02;101214.53;4996101;28;20428;-87
2021/10/04 02:10:26;;;;;;;0.17;0.17;;;;;;;15.01;64.05;101197.53;5002315;28;20033;-87
2021/10/04 02:12:54;;;;;;;0.10;0.10;;;;;;;15.02;63.95;101208.16;5003476;28;20022;-87
2021/10/04 02:15:21;;;;;;;4.85;1.23;;;;;;;14.90;64.14;101205.88;5003231;28;20022;-87
2021/10/04 02:17:48;;;;;;;0.10;0.10;;;;;;;14.93;64.09;101195.13;4999606;28;20038;-88
2021/10/04 02:20:19;;;;;;;0.10;0.10;;;;;;;14.98;64.09;101200.31;5004466;28;20040;-86
2021/10/04 02:22:46;;;;;;;0.10;0.10;;;;;;;14.93;64.22;101196.91;5002309;28;20022;-90
2021/10/04 02:25:14;;;;;;;0.10;0.10;;;;;;;14.92;64.03;101196.03;5003673;28;20033;-89
2021/10/04 02:27:41;;;;;;;0.10;0.10;;;;;;;14.84;64.23;101190.97;5001922;28;20027;-86
2021/10/04 02:30:12;;;;;;;0.10;0.10;;;;;;;14.84;64.08;101188.28;5004997;28;20029;-87
2021/10/04 02:32:43;;;;;;;0.00;0.00;;;;;;;14.95;64.07;101184.41;5001092;28;20033;-86
2021/10/04 02:35:10;;;;;;;0.10;0.10;;;;;;;14.92;64.07;101179.19;5002189;28;20508;-87
2021/10/04 02:37:37;;;;;;;0.10;0.10;;;;;;;14.87;64.22;101182.84;5002180;28;20026;-88
2021/10/04 02:40:06;;;;;;;0.10;0.10;;;;;;;14.98;64.03;101178.97;5000177;28;20050;-86
2021/10/04 02:42:34;;;;;;;0.10;0.10;;;;;;;14.88;64.06;101181.06;4998506;28;20112;-87
2021/10/04 02:45:00;;;;;;;0.10;0.10;;;;;;;14.91;63.92;101182.75;5002373;28;20030;-86
2021/10/04 02:47:27;;;;;;;0.10;0.10;;;;;;;14.93;64.16;101188.91;5002025;28;20054;-85
2021/10/04 02:49:53;;;;;;;0.10;0.10;;;;;;;14.90;64.16;101191.69;5007137;28;20496;-87
2021/10/04 02:52:21;;;;;;;0.15;0.15;;;;;;;14.84;64.21;101195.41;5005851;28;20022;-88
2021/10/04 02:54:47;;;;;;;0.03;0.03;;;;;;;14.86;64.23;101186.44;4994338;28;20037;-89
2021/10/04 02:57:14;;;;;;;0.10;0.10;;;;;;;14.84;64.27;101188.28;5003122;28;20039;-87
2021/10/04 02:59:41;;;;;;;0.10;0.10;;;;;;;14.73;64.53;101190.44;4999629;28;20139;-89
2021/10/04 03:02:07;;;;;;;0.10;0.10;;;;;;;14.72;64.46;101199.34;5003523;28;20030;-87
2021/10/04 03:04:34;;;;;;;0.10;0.10;;;;;;;14.72;64.23;101199.34;4997263;28;20030;-88
2021/10/04 03:07:00;;;;;;;0.10;0.10;;;;;;;14.66;64.57;101196.88;5002671;28;20030;-87
2021/10/04 03:09:27;;;;;;;0.10;0.10;;;;;;;14.59;65.03;101209.47;5001011;28;20543;-87
2021/10/04 03:11:53;;;;;;;0.10;0.10;;;;;;;14.59;64.67;101205.97;5003116;28;20103;-87
2021/10/04 03:14:20;;;;;;;0.10;0.10;;;;;;;14.56;65.04;101198.94;5010989;28;20034;-88
2021/10/04 03:16:46;;;;;;;0.10;0.10;;;;;;;14.56;64.94;101210.44;4978972;28;20543;-87
2021/10/04 03:19:13;;;;;;;0.10;0.10;;;;;;;14.52;65.16;101214.16;4995090;28;20388;-88
2021/10/04 03:21:39;;;;;;;0.10;0.10;;;;;;;14.53;64.84;101209.69;4994929;28;20448;-89
2021/10/04 03:24:05;;;;;;;0.10;0.10;;;;;;;14.51;65.04;101206.19;4994480;28;20026;-88
2021/10/04 03:26:32;;;;;;;0.10;0.10;;;;;;;14.43;65.29;101213.53;4994646;28;20034;-87
2021/10/04 03:28:58;;;;;;;0.10;0.10;;;;;;;14.48;65.30;101220.50;4994014;28;20070;-88
2021/10/04 03:31:24;;;;;;;0.10;0.10;;;;;;;14.47;65.52;101226.75;4986394;28;20037;-89
2021/10/04 03:33:51;;;;;;;0.10;0.10;;;;;;;14.47;65.45;101218.75;4994474;28;20386;-90
2021/10/04 03:36:17;;;;;;;0.10;0.10;;;;;;;14.49;65.26;101230.25;4994749;28;20041;-89
2021/10/04 03:38:43;;;;;;;0.10;0.10;;;;;;;14.48;65.26;101240.94;4994458;28;20037;-87
2021/10/04 03:41:10;;;;;;;0.10;0.10;;;;;;;14.47;65.46;101237.41;4994368;28;20109;-88
2021/10/04 03:43:36;;;;;;;0.10;0.10;;;;;;;14.45;65.51;101228.56;4994501;28;20111;-87
2021/10/04 03:46:02;;;;;;;0.10;0.10;;;;;;;14.39;65.56;101242.09;4994624;28;20104;-88
2021/10/04 03:48:29;;;;;;;0.10;0.10;;;;;;;14.44;65.13;101245.47;4994384;28;20026;-88
2021/10/04 03:50:56;;;;;;;0.10;0.10;;;;;;;14.41;65.23;101242.91;4995468;28;20034;-88
2021/10/04 03:53:22;;;;;;;0.10;0.10;;;;;;;14.38;65.34;101248.31;4996181;28;20018;-87
2021/10/04 03:55:49;;;;;;;0.10;0.10;;;;;;;14.38;65.30;101253.66;4995343;28;20084;-88
2021/10/04 03:58:15;;;;;;;0.10;0.10;;;;;;;14.30;65.42;101255.69;4994283;28;20076;-87
2021/10/04 04:00:42;;;;;;;0.10;0.10;;;;;;;14.29;65.39;101259.28;4985994;28;20030;-87
2021/10/04 04:03:08;;;;;;;0.10;0.10;;;;;;;14.31;65.37;101268.09;4994665;28;20018;-88
2021/10/04 04:05:34;;;;;;;0.20;0.20;;;;;;;14.22;65.87;101263.91;4993960;28;20084;-88
2021/10/04 04:08:00;;;;;;;0.00;0.00;;;;;;;14.21;66.05;101268.34;4993782;28;20080;-87
2021/10/04 04:10:27;;;;;;;0.10;0.10;;;;;;;14.20;65.83;101271.06;4990594;28;20046;-88
2021/10/04 04:12:53;;;;;;;0.10;0.10;;;;;;;14.19;65.80;101272.88;4994288;28;20034;-90
2021/10/04 04:15:19;;;;;;;0.10;0.10;;;;;;;14.18;65.44;101278.22;4994135;28;20473;-89
2021/10/04 04:17:45;;;;;;;0.05;0.05;;;;;;;14.12;65.79;101278.41;4993676;28;20038;-89
2021/10/04 04:20:12;;;;;;;0.10;0.10;;;;;;;14.11;65.78;101285.53;4993925;28;20558;-88
2021/10/04 04:22:40;;;;;;;0.10;0.10;;;;;;;14.03;65.98;101275.09;4993571;28;20506;-88
2021/10/04 04:25:07;;;;;;;0.10;0.10;;;;;;;14.06;65.89;101290.97;4993951;28;20027;-88
2021/10/04 04:27:34;;;;;;;0.10;0.10;;;;;;;14.02;65.66;101286.66;4993717;28;20023;-88
2021/10/04 04:30:01;;;;;;;0.10;0.10;;;;;;;13.98;66.10;101302.75;4992616;28;20026;-89
2021/10/04 04:32:28;;;;;;;0.10;0.10;;;;;;;13.98;66.17;101298.31;4981651;28;20121;-89
2021/10/04 04:34:55;;;;;;;0.10;0.10;;;;;;;13.97;66.01;101303.66;4993466;28;20026;-88
2021/10/04 04:37:21;;;;;;;0.10;0.10;;;;;;;13.97;66.02;101309.00;4993986;28;20034;-89
2021/10/04 04:39:47;;;;;;;0.10;0.10;;;;;;;13.96;66.00;101317.94;4994013;28;20038;-89
2021/10/04 04:42:14;;;;;;;0.10;0.10;;;;;;;13.93;66.21;101315.34;4993802;28;20030;-88
2021/10/04 04:44:40;;;;;;;0.10;0.10;;;;;;;13.88;66.32;101319.00;4993579;28;20080;-88
2021/10/04 04:47:06;;;;;;;0.10;0.10;;;;;;;13.90;66.18;101311.81;4993865;28;20042;-88
2021/10/04 04:49:32;;;;;;;0.10;0.10;;;;;;;13.90;65.82;101305.63;4993161;28;20022;-90
2021/10/04 04:51:59;;;;;;;0.10;0.10;;;;;;;13.85;66.54;101315.53;4990130;28;20061;-88
2021/10/04 04:54:26;;;;;;;0.10;0.10;;;;;;;13.84;66.68;101311.97;4993012;28;20520;-87
2021/10/04 04:56:54;;;;;;;0.10;0.10;;;;;;;13.84;66.29;101327.97;4993651;28;20109;-88
2021/10/04 04:59:22;;;;;;;0.10;0.10;;;;;;;13.82;66.36;101319.16;4993971;28;20080;-87
2021/10/04 05:01:51;;;;;;;0.10;0.10;;;;;;;13.79;66.59;101324.53;4992835;28;20547;-88
2021/10/04 05:04:17;;;;;;;0.30;0.30;;;;;;;13.74;66.51;101327.34;4993395;28;20026;-88
2021/10/04 05:06:43;;;;;;;0.35;0.35;;;;;;;13.75;66.91;101330.88;4994070;28;20472;-87
2021/10/04 05:09:10;;;;;;;0.10;0.10;;;;;;;13.72;66.70;101322.94;4993802;28;20042;-88
2021/10/04 05:11:36;;;;;;;0.10;0.10;;;;;;;13.69;66.99;101328.38;4992000;28;20038;-88
2021/10/04 05:14:02;;;;;;;0.10;0.10;;;;;;;13.59;66.75;101331.28;4994593;28;20030;-87
2021/10/04 05:16:30;;;;;;;0.10;0.10;;;;;;;13.54;66.97;101333.16;4995968;28;20397;-89
2021/10/04 05:18:56;;;;;;;0.30;0.20;;;;;;;13.50;67.41;101339.47;4997378;28;20109;-88
2021/10/04 05:21:22;;;;;;;0.10;0.10;;;;;;;13.42;67.17;101339.66;4997123;28;20481;-88
2021/10/04 05:23:57;;;;;;;1.98;0.55;;;;;;;13.40;67.37;101332.63;4998108;28;20053;-90
2021/10/04 05:26:24;;;;;;;0.10;0.10;;;;;;;13.33;67.79;101333.66;4997653;28;20505;-93
2021/10/04 05:28:51;;;;;;;0.10;0.10;;;;;;;13.34;67.98;101340.72;4997124;28;20162;-89
2021/10/04 05:31:17;;;;;;;0.10;0.10;;;;;;;13.25;67.89;101339.16;4993439;28;20086;-87
2021/10/04 05:33:43;;;;;;;0.10;0.10;;;;;;;13.19;68.04;101345.47;4998532;28;20038;-87
2021/10/04 05:36:09;;;;;;;0.10;0.10;;;;;;;13.18;67.78;101345.53;5000284;28;20023;-87
2021/10/04 05:38:35;;;;;;;0.20;0.20;;;;;;;13.19;68.32;101349.94;4996452;28;20398;-87
2021/10/04 05:41:02;;;;;;;0.10;0.10;;;;;;;13.20;68.33;101349.03;4996603;28;20034;-88
2021/10/04 05:43:28;;;;;;;0.10;0.10;;;;;;;13.18;68.65;101356.16;4996523;28;20038;-88
2021/10/04 05:45:54;;;;;;;0.10;0.10;;;;;;;13.16;68.53;101357.97;4996245;28;20034;-88
2021/10/04 05:48:20;;;;;;;0.63;0.63;;;;;;;13.09;68.49;101350.13;4998136;28;20117;-87
2021/10/04 05:50:49;;;;;;;0.35;0.35;;;;;;;13.13;68.46;101353.59;4996424;28;20476;-87
2021/10/04 05:53:16;;;;;;;0.10;0.10;;;;;;;13.14;68.64;101366.00;4994631;28;20112;-85
2021/10/04 05:55:43;;;;;;;0.10;0.10;;;;;;;13.17;68.08;101368.59;4981463;28;20070;-87
2021/10/04 05:58:09;;;;;;;0.10;0.10;;;;;;;13.12;68.97;101375.78;4993331;28;20022;-86
2021/10/04 06:00:35;;;;;;;0.15;0.15;;;;;;;13.09;68.15;101375.88;4995751;28;20034;-90
2021/10/04 06:03:02;;;;;;;0.10;0.10;;;;;;;13.11;68.15;101382.03;4993347;28;20052;-86
2021/10/04 06:05:28;;;;;;;0.10;0.10;;;;;;;13.02;68.48;101384.88;4993635;28;20516;-83
2021/10/04 06:07:54;;;;;;;0.10;0.10;;;;;;;13.01;68.88;101391.13;4994588;28;20042;-86
2021/10/04 06:10:20;;;;;;;0.20;0.20;;;;;;;13.06;68.72;101390.13;4998466;28;20096;-88
2021/10/04 06:12:47;;;;;;;0.10;0.10;;;;;;;13.06;68.81;101397.19;5008955;28;20022;-89
2021/10/04 06:15:14;;;;;;;0.50;0.50;;;;;;;13.02;69.09;101400.84;4993645;28;20133;-88
2021/10/04 06:17:41;;;;;;;0.10;0.10;;;;;;;13.01;68.94;101402.66;4996028;28;20121;-89
2021/10/04 06:20:08;;;;;;;0.05;0.05;;;;;;;12.99;69.18;101401.78;4996208;28;20105;-88
2021/10/04 06:22:37;;;;;;;0.10;0.10;;;;;;;12.97;68.90;101397.41;4993693;28;20042;-88
2021/10/04 06:25:07;;;;;;;0.10;0.10;;;;;;;13.00;69.38;101408.88;4992019;28;20095;-89
2021/10/04 06:27:33;;;;;;;0.10;0.10;;;;;;;12.99;69.21;101406.25;4995699;28;20425;-88
2021/10/04 06:30:01;;;;;;;0.10;0.10;;;;;;;13.02;69.03;101406.16;4993960;28;20041;-88
2021/10/04 06:32:27;;;;;;;0.10;0.10;;;;;;;13.02;69.37;101407.06;4995384;28;20041;-88
2021/10/04 06:35:04;;;;;;;0.10;0.10;;;;;;;13.09;68.85;101413.13;4992795;28;20034;-87
2021/10/04 06:37:32;;;;;;;0.10;0.10;;;;;;;13.07;69.11;101414.91;4975500;28;20026;-88
2021/10/04 06:39:59;;;;;;;0.10;0.10;;;;;;;13.11;68.98;101416.63;4986163;28;20499;-88
2021/10/04 06:42:25;;;;;;;0.10;0.10;;;;;;;13.13;69.21;101420.13;5013362;28;20041;-81
2021/10/04 06:44:52;;;;;;;0.10;0.10;;;;;;;13.09;69.17;101413.13;5014529;28;20454;-88
2021/10/04 06:47:21;;;;;;;0.10;0.10;;;;;;;13.19;68.79;101413.78;5014177;28;20050;-86
2021/10/04 06:49:47;;;;;;;0.15;0.15;;;;;;;13.16;68.53;101419.16;5014905;28;20061;-81
2021/10/04 06:52:22;;;;;;;0.10;0.10;;;;;;;13.18;68.91;101418.22;5014806;28;20038;-89
2021/10/04 06:54:50;;;;;;;0.90;0.90;;;;;;;13.25;68.69;101425.16;5014576;28;20022;-90
2021/10/04 06:57:16;;;;;;;0.10;0.10;;;;;;;13.26;68.72;101421.59;5014519;28;20116;-89
2021/10/04 06:59:46;;;;;;;0.10;0.10;;;;;;;13.30;68.33;101426.88;5014998;28;20034;-89
2021/10/04 07:02:12;;;;;;;0.15;0.15;;;;;;;13.33;68.60;101432.13;5019927;28;20097;-90
2021/10/04 07:04:38;;;;;;;0.10;0.10;;;;;;;13.34;68.45;101426.75;5002577;28;20039;-85
2021/10/04 07:07:04;;;;;;;0.10;0.10;;;;;;;13.40;68.24;101433.78;4997833;28;20465;-92
2021/10/04 07:09:31;;;;;;;0.10;0.10;;;;;;;13.43;68.72;101441.69;4987382;28;20470;-92
2021/10/04 07:11:58;;;;;;;0.10;0.10;;;;;;;13.49;68.10;101433.56;4993635;28;20473;-92
2021/10/04 07:14:24;;;;;;;0.20;0.20;;;;;;;13.49;68.45;101440.69;4993727;28;20123;-92
2021/10/04 07:16:50;;;;;;;0.10;0.10;;;;;;;13.53;68.13;101451.22;4993900;28;20026;-91
2021/10/04 07:19:17;;;;;;;0.10;0.10;;;;;;;13.65;68.42;101444.72;4993671;28;20495;-92
2021/10/04 07:21:43;;;;;;;0.10;0.10;;;;;;;13.59;68.02;101442.22;4993930;28;20053;-92
2021/10/04 07:24:10;;;;;;;2.10;0.60;;;;;;;13.68;67.82;101435.78;4987321;28;20018;-92
2021/10/04 07:26:36;;;;;;;0.10;0.10;;;;;;;13.67;67.69;101442.91;4984720;28;20057;-92
2021/10/04 07:29:04;;;;;;;0.10;0.10;;;;;;;13.70;68.15;101441.97;4980541;28;20113;-93
2021/10/04 07:31:30;;;;;;;0.10;0.10;;;;;;;13.88;67.80;101443.31;4984462;28;20046;-88
2021/10/04 07:33:56;;;;;;;0.10;0.10;;;;;;;13.91;67.46;101441.44;4979063;28;20027;-96
2021/10/04 07:36:27;;;;;;;0.10;0.10;;;;;;;14.01;67.05;101451.88;4976332;28;20042;-93
2021/10/04 07:38:54;;;;;;;0.10;0.10;;;;;;;14.02;67.25;101443.00;4983327;28;20035;-93
2021/10/04 07:41:20;;;;;;;0.20;0.20;;;;;;;14.14;66.95;101447.13;4980000;28;20030;-93
2021/10/04 07:43:46;;;;;;;0.10;0.10;;;;;;;14.16;66.76;101453.28;4993211;28;20038;-90
2021/10/04 07:46:13;;;;;;;0.10;0.10;;;;;;;14.23;66.93;101452.19;4978975;28;20470;-91
2021/10/04 07:48:39;;;;;;;0.47;0.47;;;;;;;14.26;66.75;101451.28;4976887;28;20034;-95
2021/10/04 07:51:07;;;;;;;0.10;0.10;;;;;;;14.32;66.61;101461.78;4992993;28;20026;-94
2021/10/04 07:53:35;;;;;;;0.20;0.20;;;;;;;14.27;66.56;101453.00;4992930;28;20026;-92
2021/10/04 07:56:02;;;;;;;0.73;0.73;;;;;;;14.34;66.63;101450.16;4993209;28;20469;-93
2021/10/04 07:58:28;;;;;;;0.13;0.13;;;;;;;14.47;66.00;101466.69;4987128;28;20022;-92
2021/10/04 08:00:55;;;;;;;0.10;0.10;;;;;;;14.48;65.90;101457.78;4986838;28;20023;-91
2021/10/04 08:03:21;;;;;;;0.10;0.10;;;;;;;14.61;65.40;101460.13;4992560;28;20109;-82
2021/10/04 08:05:47;;;;;;;0.10;0.10;;;;;;;14.72;65.24;101466.09;4992585;28;20424;-90
2021/10/04 08:08:13;;;;;;;0.10;0.10;;;;;;;14.66;65.42;101455.56;4983219;28;20034;-89
2021/10/04 08:10:39;;;;;;;0.20;0.20;;;;;;;14.87;65.32;101454.97;4975820;28;20093;-89
2021/10/04 08:13:06;;;;;;;0.10;0.10;;;;;;;14.97;65.08;101454.72;4982386;28;20097;-90
2021/10/04 08:15:32;;;;;;;0.15;0.15;;;;;;;14.92;64.95;101446.84;4987494;28;20023;-91
2021/10/04 08:17:59;;;;;;;0.10;0.10;;;;;;;15.01;64.54;101461.72;4991617;28;20146;-90
2021/10/04 08:20:25;;;;;;;0.57;0.57;;;;;;;15.08;64.11;101455.28;4980759;28;20030;-90
2021/10/04 08:22:52;;;;;;;0.10;0.10;;;;;;;15.11;63.78;101460.53;4973370;28;20023;-90
2021/10/04 08:25:19;;;;;;;0.10;0.10;;;;;;;15.29;63.54;101458.22;4973217;28;20023;-90
2021/10/04 08:27:46;;;;;;;0.10;0.10;;;;;;;15.28;63.26;101462.69;4983368;28;20412;-91
2021/10/04 08:30:12;;;;;;;0.10;0.10;;;;;;;15.35;63.61;101461.59;4993149;28;20066;-91
2021/10/04 08:32:38;;;;;;;0.10;0.10;;;;;;;15.41;62.87;101460.53;4992772;28;20054;-91
2021/10/04 08:35:06;;;;;;;0.10;0.10;;;;;;;15.54;62.68;101453.03;4986748;28;20039;-90
2021/10/04 08:37:33;;;;;;;0.10;0.10;;;;;;;15.59;62.85;101452.88;4973470;28;20373;-90
2021/10/04 08:40:03;;;;;;;0.10;0.10;;;;;;;15.74;62.81;101449.72;4973419;28;20110;-90
2021/10/04 08:42:30;;;;;;;0.00;0.00;;;;;;;15.84;62.45;101448.53;4972943;28;20035;-89
2021/10/04 08:45:00;;;;;;;0.10;0.10;;;;;;;15.82;61.80;101445.03;4974067;28;20042;-89
2021/10/04 08:47:27;;;;;;;1.17;1.10;;;;;;;15.80;61.14;101443.31;4990968;28;20040;-92
2021/10/04 08:49:53;;;;;;;0.13;0.13;;;;;;;15.91;61.11;101434.97;4987840;28;20026;-92
2021/10/04 08:52:20;;;;;;;0.03;0.03;;;;;;;15.85;61.68;101444.94;4976899;28;20027;-91
2021/10/04 08:54:48;;;;;;;0.10;0.10;;;;;;;16.16;61.34;101449.28;4977029;28;20614;-90
2021/10/04 08:57:14;;;;;;;0.10;0.10;;;;;;;16.21;61.08;101451.78;4976769;28;20022;-90
2021/10/04 08:59:40;;;;;;;0.10;0.10;;;;;;;16.27;61.21;101450.72;4977276;28;20035;-91
2021/10/04 09:02:31;;;;;;;0.35;0.35;;;;;;;16.35;60.62;101456.69;4977527;28;20059;-91
2021/10/04 09:07:53;;;;;;;0.10;0.10;;;;;;;16.55;60.54;101455.09;5089436;27;20475;-91
2021/10/04 09:13:09;;;;;;;0.10;0.10;;;;;;;16.73;59.55;101448.22;5109673;27;20926;-90
2021/10/04 09:15:44;;;;;;;0.10;0.10;;;;;;;16.73;59.74;101451.75;5099304;28;20028;-91
2021/10/04 09:18:23;;;;;;;0.10;0.10;;;;;;;16.82;59.48;101455.91;5089277;28;20031;-91
2021/10/04 09:21:07;;;;;;;0.10;0.10;;;;;;;16.97;59.20;101457.16;5086331;28;20035;-90
2021/10/04 09:23:46;;;;;;;0.10;0.10;;;;;;;16.84;59.41;101461.22;5069513;28;20470;-90
2021/10/04 09:26:36;;;;;;;0.40;0.40;;;;;;;17.13;59.06;101460.16;5068932;28;20032;-89
2021/10/04 09:29:07;;;;;;;0.47;0.47;;;;;;;17.10;58.52;101458.47;5068928;28;20035;-91
2021/10/04 09:31:37;;;;;;;0.10;0.10;;;;;;;17.06;57.98;101461.31;5069183;28;20036;-91
2021/10/04 09:34:26;;;;;;;0.10;0.10;;;;;;;17.21;57.67;101454.50;5068948;28;20102;-86
2021/10/04 09:36:58;;;;;;;0.17;0.17;;;;;;;17.34;58.27;101453.09;5069743;28;20035;-89
2021/10/04 09:42:14;;;;;;;0.10;0.10;;;;;;;17.56;58.34;101455.81;5049072;28;20428;-94
2021/10/04 09:47:42;;;;;;;0.10;0.10;;;;;;;17.49;56.51;101453.44;5072262;27;20422;-96
2021/10/04 09:53:08;;;;;;;0.10;0.10;;;;;;;17.66;56.73;101460.81;5060964;27;20909;-96
2021/10/04 09:55:39;;;;;;;0.10;0.10;;;;;;;17.73;57.03;101457.84;5054034;28;20250;-96
2021/10/04 10:04:01;;;;;;;0.00;0.00;;;;;;;17.94;56.38;101458.81;5075181;27;20540;-96
2021/10/04 10:06:32;;;;;;;0.20;0.20;;;;;;;17.73;55.49;101455.16;5071447;28;20051;-94
2021/10/04 10:08:59;;;;;;;0.10;0.10;;;;;;;17.96;55.92;101472.13;5071730;28;20028;-94
2021/10/04 10:11:28;;;;;;;0.30;0.30;;;;;;;18.02;54.98;101463.84;5072882;28;20024;-92
2021/10/04 10:13:55;;;;;;;0.10;0.10;;;;;;;18.18;55.49;101457.81;5073158;28;20028;-93
2021/10/04 10:16:29;;;;;;;0.52;0.52;;;;;;;18.30;55.42;101468.03;5071440;28;20094;-96
2021/10/04 10:19:03;;;;;;;0.38;0.38;;;;;;;18.45;55.26;101466.50;5069322;28;20033;-83
2021/10/04 10:21:34;;;;;;;0.30;0.30;;;;;;;18.52;54.75;101477.88;5052501;28;20033;-95
2021/10/04 10:26:49;;;;;;;0.10;0.10;;;;;;;18.91;53.89;101471.69;5078808;27;20497;-89
2021/10/04 10:50:31;;;;;;;0.35;0.35;;;;;;;19.34;51.91;101471.53;5299642;22;20935763;-94
2021/10/04 11:14:56;;;;;;;0.10;0.10;;;;;;;19.82;50.69;101445.06;6253098;23;20058;-92
2021/10/04 11:16:30;;;;;;;0.10;0.10;;;;;;;19.83;49.69;101449.53;6204761;23;20035;-91
2021/10/04 11:18:59;;;;;;;0.10;0.10;;;;;;;19.60;49.91;101453.28;6221887;23;20051;-88
2021/10/04 11:27:51;;;;;;;0.10;0.10;;;;;;;19.88;48.50;101456.41;6254799;22;19916;-94
2021/10/04 11:34:31;;;;;;;0.25;0.25;;;;;;;19.88;49.85;101450.16;6075144;23;20015;-90
2021/10/04 11:37:25;;;;;;;0.10;0.10;;;;;;;20.19;49.03;101451.31;5994862;23;20109;-93
2021/10/04 11:39:58;;;;;;;0.10;0.10;;;;;;;20.26;48.04;101450.06;6102672;22;20024;-92
2021/10/04 11:45:34;;;;;;;0.10;0.10;;;;;;;19.94;47.53;101444.50;6237136;22;20110;-92
2021/10/04 12:35:22;;;;;;;0.13;0.13;;;;;;;21.10;43.13;101424.16;6244727;22;20047;-87
2021/10/04 12:38:06;;;;;;;0.60;0.60;;;;;;;21.15;43.21;101419.38;6245499;22;20012;-89
2021/10/04 12:46:07;;;;;;;0.10;0.10;;;;;;;21.13;44.94;101413.19;5089533;27;20411;-85
2021/10/04 12:48:43;;;;;;;0.40;0.40;;;;;;;21.03;45.21;101414.66;5068933;28;20116;-88
2021/10/04 12:51:14;;;;;;;0.10;0.10;;;;;;;20.98;44.91;101410.38;5068768;28;20033;-85
2021/10/04 12:53:58;;;;;;;0.05;0.05;;;;;;;20.68;44.10;101419.13;5057185;28;20032;-87
2021/10/04 12:56:30;;;;;;;0.10;0.10;;;;;;;20.78;45.06;101419.53;5048953;28;20025;-87
2021/10/04 13:01:51;;;;;;;0.10;0.10;;;;;;;21.13;43.16;101421.28;5088593;27;20919;-86
2021/10/04 13:04:38;;;;;;;0.20;0.20;;;;;;;20.82;44.12;101420.25;5072190;28;20438;-87
2021/10/04 13:07:06;;;;;;;0.22;0.22;;;;;;;20.93;44.37;101431.31;5069198;28;20029;-87
2021/10/04 13:09:37;;;;;;;0.08;0.08;;;;;;;21.07;43.81;101413.53;5069044;28;20032;-87
2021/10/04 13:12:05;;;;;;;0.10;0.10;;;;;;;21.29;44.68;101416.75;5069385;28;20385;-87
2021/10/04 13:14:32;;;;;;;0.10;0.10;;;;;;;21.24;44.65;101426.94;5069868;28;20028;-87
2021/10/04 13:17:01;;;;;;;0.10;0.10;;;;;;;21.11;44.07;101415.09;5069090;28;20422;-87
2021/10/04 13:19:30;;;;;;;0.10;0.10;;;;;;;21.29;44.31;101424.00;5068888;28;20479;-87
2021/10/04 13:21:56;;;;;;;0.05;0.05;;;;;;;21.14;44.37;101429.25;5068782;28;20071;-86
2021/10/04 13:24:22;;;;;;;0.10;0.10;;;;;;;20.84;44.76;101429.13;5068605;28;20033;-85
2021/10/04 13:26:49;;;;;;;1.02;0.45;;;;;;;20.71;44.68;101426.25;5068517;28;20051;-85
2021/10/04 13:29:16;;;;;;;0.10;0.10;;;;;;;20.70;44.24;101421.75;5068343;28;20505;-85
2021/10/04 13:31:43;;;;;;;0.10;0.10;;;;;;;20.78;44.65;101413.31;5068512;28;20078;-85
2021/10/04 13:34:10;;;;;;;0.10;0.10;;;;;;;20.61;44.03;101423.13;5068664;28;20111;-87
2021/10/04 13:36:37;;;;;;;0.00;0.00;;;;;;;20.56;43.37;101418.94;5068495;28;20021;-86
2021/10/04 13:39:04;;;;;;;0.10;0.10;;;;;;;20.54;44.70;101405.56;5068241;28;20025;-87
2021/10/04 13:41:30;;;;;;;0.10;0.10;;;;;;;20.78;44.97;101413.31;5068282;28;20044;-87
2021/10/04 13:43:56;;;;;;;0.10;0.10;;;;;;;20.80;45.26;101414.09;5068405;28;20032;-87